sensor_id;sensor_type;location;lat;lon;timestamp;pressure;altitude;pressure_sealevel;temperature;humidity
51289;BME280;37372;52.294;5.152;2023-08-30T00:00:13;100756.59;;;12.61;100.00
51289;BME280;37372;52.294;5.152;2023-08-30T00:02:39;100755.19;;;12.58;100.00
51289;BME280;37372;52.294;5.152;2023-08-30T00:05:08;100749.19;;;12.61;100.00
51289;BME280;37372;52.294;5.152;2023-08-30T00:07:35;100748.13;;;12.62;100.00
51289;BME280;37372;52.294;5.152;2023-08-30T00:10:00;100738.78;;;12.63;100.00
51289;BME280;37372;52.294;5.152;2023-08-30T00:12:29;100742.94;;;12.66;100.00
51289;BME280;37372;52.294;5.152;2023-08-30T00:14:55;100739.47;;;12.70;100.00
51289;BME280;37372;52.294;5.152;2023-08-30T00:17:30;100734.38;;;12.79;100.00
51289;BME280;37372;52.294;5.152;2023-08-30T00:20:03;100729.22;;;12.83;100.00
51289;BME280;37372;52.294;5.152;2023-08-30T00:22:30;100734.22;;;12.86;100.00
51289;BME280;37372;52.294;5.152;2023-08-30T00:24:56;100726.53;;;12.88;100.00
51289;BME280;37372;52.294;5.152;2023-08-30T00:27:39;100728.28;;;12.94;100.00
51289;BME280;37372;52.294;5.152;2023-08-30T00:30:11;100717.28;;;12.94;100.00
51289;BME280;37372;52.294;5.152;2023-08-30T00:32:37;100721.22;;;12.98;100.00
51289;BME280;37372;52.294;5.152;2023-08-30T00:35:02;100723.69;;;12.99;100.00
51289;BME280;37372;52.294;5.152;2023-08-30T00:37:28;100717.53;;;12.92;100.00
51289;BME280;37372;52.294;5.152;2023-08-30T00:39:54;100717.88;;;12.96;100.00
51289;BME280;37372;52.294;5.152;2023-08-30T00:42:20;100713.53;;;13.00;100.00
51289;BME280;37372;52.294;5.152;2023-08-30T00:44:45;100702.84;;;13.04;100.00
51289;BME280;37372;52.294;5.152;2023-08-30T00:47:42;100701.03;;;13.09;100.00
51289;BME280;37372;52.294;5.152;2023-08-30T00:50:20;100697.25;;;13.15;100.00
51289;BME280;37372;52.294;5.152;2023-08-30T00:52:45;100702.38;;;13.23;100.00
51289;BME280;37372;52.294;5.152;2023-08-30T00:55:11;100700.19;;;13.25;100.00
51289;BME280;37372;52.294;5.152;2023-08-30T00:57:45;100695.28;;;13.27;100.00
51289;BME280;37372;52.294;5.152;2023-08-30T01:00:12;100688.84;;;13.22;100.00
51289;BME280;37372;52.294;5.152;2023-08-30T01:03:03;100688.84;;;13.22;100.00
51289;BME280;37372;52.294;5.152;2023-08-30T01:05:40;100691.34;;;13.23;100.00
51289;BME280;37372;52.294;5.152;2023-08-30T01:15:13;100679.81;;;13.26;100.00
51289;BME280;37372;52.294;5.152;2023-08-30T01:17:42;100676.81;;;13.28;100.00
51289;BME280;37372;52.294;5.152;2023-08-30T01:20:11;100680.91;;;13.25;100.00
51289;BME280;37372;52.294;5.152;2023-08-30T01:23:01;100680.16;;;13.30;100.00
51289;BME280;37372;52.294;5.152;2023-08-30T01:26:00;100673.28;;;13.33;100.00
51289;BME280;37372;52.294;5.152;2023-08-30T01:28:30;100685.22;;;13.38;100.00
51289;BME280;37372;52.294;5.152;2023-08-30T01:30:57;100678.13;;;13.42;100.00
51289;BME280;37372;52.294;5.152;2023-08-30T01:33:24;100688.91;;;13.44;100.00
51289;BME280;37372;52.294;5.152;2023-08-30T01:35:55;100678.44;;;13.46;100.00
51289;BME280;37372;52.294;5.152;2023-08-30T01:38:21;100682.06;;;13.46;100.00
51289;BME280;37372;52.294;5.152;2023-08-30T01:40:54;100673.25;;;13.49;100.00
51289;BME280;37372;52.294;5.152;2023-08-30T01:43:23;100675.19;;;13.49;100.00
51289;BME280;37372;52.294;5.152;2023-08-30T01:45:50;100668.59;;;13.50;100.00
51289;BME280;37372;52.294;5.152;2023-08-30T01:48:17;100668.59;;;13.50;100.00
51289;BME280;37372;52.294;5.152;2023-08-30T01:50:44;100660.00;;;13.46;100.00
51289;BME280;37372;52.294;5.152;2023-08-30T01:53:13;100660.00;;;13.46;100.00
51289;BME280;37372;52.294;5.152;2023-08-30T01:55:38;100655.34;;;13.47;100.00
51289;BME280;37372;52.294;5.152;2023-08-30T01:58:38;100661.16;;;13.50;100.00
51289;BME280;37372;52.294;5.152;2023-08-30T02:01:07;100656.72;;;13.49;100.00
51289;BME280;37372;52.294;5.152;2023-08-30T02:03:53;100652.38;;;13.53;100.00
51289;BME280;37372;52.294;5.152;2023-08-30T02:06:25;100654.88;;;13.55;100.00
51289;BME280;37372;52.294;5.152;2023-08-30T02:15:10;100641.56;;;13.69;100.00
51289;BME280;37372;52.294;5.152;2023-08-30T02:17:41;100642.94;;;13.71;100.00
51289;BME280;37372;52.294;5.152;2023-08-30T02:20:07;100643.28;;;13.75;100.00
51289;BME280;37372;52.294;5.152;2023-08-30T02:23:22;100647.44;;;13.77;100.00
51289;BME280;37372;52.294;5.152;2023-08-30T02:25:41;100647.44;;;13.77;100.00
51289;BME280;37372;52.294;5.152;2023-08-30T02:28:10;100643.84;;;13.77;100.00
51289;BME280;37372;52.294;5.152;2023-08-30T02:30:35;100653.47;;;13.74;100.00
51289;BME280;37372;52.294;5.152;2023-08-30T02:33:00;100637.19;;;13.73;100.00
51289;BME280;37372;52.294;5.152;2023-08-30T02:35:35;100630.59;;;13.74;100.00
51289;BME280;37372;52.294;5.152;2023-08-30T02:38:01;100633.63;;;13.72;100.00
51289;BME280;37372;52.294;5.152;2023-08-30T02:40:45;100626.66;;;13.70;100.00
51289;BME280;37372;52.294;5.152;2023-08-30T02:43:17;100626.66;;;13.70;100.00
51289;BME280;37372;52.294;5.152;2023-08-30T02:45:56;100622.53;;;13.67;100.00
51289;BME280;37372;52.294;5.152;2023-08-30T02:48:27;100627.13;;;13.62;100.00
51289;BME280;37372;52.294;5.152;2023-08-30T02:50:52;100628.22;;;13.61;100.00
51289;BME280;37372;52.294;5.152;2023-08-30T02:53:18;100622.97;;;13.59;100.00
51289;BME280;37372;52.294;5.152;2023-08-30T02:55:44;100614.63;;;13.54;100.00
51289;BME280;37372;52.294;5.152;2023-08-30T02:58:11;100607.66;;;13.46;100.00
51289;BME280;37372;52.294;5.152;2023-08-30T03:00:36;100607.88;;;13.45;100.00
51289;BME280;37372;52.294;5.152;2023-08-30T03:03:02;100600.41;;;13.40;100.00
51289;BME280;37372;52.294;5.152;2023-08-30T03:05:28;100599.25;;;13.36;100.00
51289;BME280;37372;52.294;5.152;2023-08-30T03:08:20;100600.81;;;13.32;100.00
51289;BME280;37372;52.294;5.152;2023-08-30T03:10:46;100598.84;;;13.27;100.00
51289;BME280;37372;52.294;5.152;2023-08-30T03:13:11;100591.81;;;13.20;100.00
51289;BME280;37372;52.294;5.152;2023-08-30T03:15:37;100588.19;;;13.14;100.00
51289;BME280;37372;52.294;5.152;2023-08-30T03:18:03;100589.19;;;13.08;100.00
51289;BME280;37372;52.294;5.152;2023-08-30T03:20:29;100580.28;;;13.01;100.00
51289;BME280;37372;52.294;5.152;2023-08-30T03:22:59;100582.97;;;12.96;100.00
51289;BME280;37372;52.294;5.152;2023-08-30T03:25:29;100582.31;;;12.89;100.00
51289;BME280;37372;52.294;5.152;2023-08-30T03:27:55;100575.88;;;12.83;100.00
51289;BME280;37372;52.294;5.152;2023-08-30T03:30:21;100574.22;;;12.82;100.00
51289;BME280;37372;52.294;5.152;2023-08-30T03:32:57;100567.53;;;12.78;100.00
51289;BME280;37372;52.294;5.152;2023-08-30T03:35:23;100571.03;;;12.73;100.00
51289;BME280;37372;52.294;5.152;2023-08-30T03:38:19;100575.31;;;12.64;100.00
51289;BME280;37372;52.294;5.152;2023-08-30T03:40:46;100561.47;;;12.59;100.00
51289;BME280;37372;52.294;5.152;2023-08-30T03:43:11;100560.91;;;12.57;100.00
51289;BME280;37372;52.294;5.152;2023-08-30T03:45:40;100558.06;;;12.52;100.00
51289;BME280;37372;52.294;5.152;2023-08-30T03:48:05;100550.53;;;12.47;100.00
51289;BME280;37372;52.294;5.152;2023-08-30T03:50:40;100548.63;;;12.48;100.00
51289;BME280;37372;52.294;5.152;2023-08-30T03:53:14;100545.81;;;12.43;100.00
51289;BME280;37372;52.294;5.152;2023-08-30T03:55:40;100525.97;;;12.41;100.00
51289;BME280;37372;52.294;5.152;2023-08-30T03:58:17;100528.13;;;12.39;100.00
51289;BME280;37372;52.294;5.152;2023-08-30T04:00:43;100533.56;;;12.34;100.00
51289;BME280;37372;52.294;5.152;2023-08-30T04:03:14;100531.31;;;12.31;100.00
51289;BME280;37372;52.294;5.152;2023-08-30T04:05:40;100525.22;;;12.29;100.00
51289;BME280;37372;52.294;5.152;2023-08-30T04:08:12;100531.06;;;12.32;100.00
51289;BME280;37372;52.294;5.152;2023-08-30T04:10:41;100526.47;;;12.38;100.00
51289;BME280;37372;52.294;5.152;2023-08-30T04:13:16;100529.31;;;12.43;100.00
51289;BME280;37372;52.294;5.152;2023-08-30T04:15:41;100535.22;;;12.52;100.00
51289;BME280;37372;52.294;5.152;2023-08-30T04:18:10;100533.88;;;12.54;100.00
51289;BME280;37372;52.294;5.152;2023-08-30T04:20:46;100535.63;;;12.60;100.00
51289;BME280;37372;52.294;5.152;2023-08-30T04:23:15;100532.03;;;12.60;100.00
51289;BME280;37372;52.294;5.152;2023-08-30T04:25:41;100538.72;;;12.64;100.00
51289;BME280;37372;52.294;5.152;2023-08-30T04:28:10;100533.53;;;12.67;100.00
51289;BME280;37372;52.294;5.152;2023-08-30T04:30:37;100521.94;;;12.65;100.00
51289;BME280;37372;52.294;5.152;2023-08-30T04:33:05;100528.78;;;12.63;100.00
51289;BME280;37372;52.294;5.152;2023-08-30T04:35:32;100521.38;;;12.63;100.00
51289;BME280;37372;52.294;5.152;2023-08-30T04:38:10;100523.50;;;12.61;100.00
51289;BME280;37372;52.294;5.152;2023-08-30T04:40:35;100517.19;;;12.61;100.00
51289;BME280;37372;52.294;5.152;2023-08-30T04:43:12;100512.84;;;12.65;100.00
51289;BME280;37372;52.294;5.152;2023-08-30T04:45:37;100514.25;;;12.67;100.00
51289;BME280;37372;52.294;5.152;2023-08-30T04:48:06;100505.50;;;12.70;100.00
51289;BME280;37372;52.294;5.152;2023-08-30T04:50:36;100503.31;;;12.72;100.00
51289;BME280;37372;52.294;5.152;2023-08-30T04:53:16;100497.56;;;12.74;100.00
51289;BME280;37372;52.294;5.152;2023-08-30T04:55:42;100503.41;;;12.78;100.00
51289;BME280;37372;52.294;5.152;2023-08-30T04:58:27;100499.63;;;12.84;100.00
51289;BME280;37372;52.294;5.152;2023-08-30T05:01:04;100486.88;;;12.78;100.00
51289;BME280;37372;52.294;5.152;2023-08-30T05:03:36;100486.31;;;12.76;100.00
51289;BME280;37372;52.294;5.152;2023-08-30T05:06:11;100499.75;;;12.72;100.00
51289;BME280;37372;52.294;5.152;2023-08-30T05:08:45;100494.50;;;12.70;100.00
51289;BME280;37372;52.294;5.152;2023-08-30T05:11:10;100488.41;;;12.68;100.00
51289;BME280;37372;52.294;5.152;2023-08-30T05:13:38;100482.31;;;12.66;100.00
51289;BME280;37372;52.294;5.152;2023-08-30T05:16:04;100482.56;;;12.65;100.00
51289;BME280;37372;52.294;5.152;2023-08-30T05:18:39;100485.06;;;12.66;100.00
51289;BME280;37372;52.294;5.152;2023-08-30T05:21:38;100478.47;;;12.67;100.00
51289;BME280;37372;52.294;5.152;2023-08-30T05:24:05;100485.47;;;12.75;100.00
51289;BME280;37372;52.294;5.152;2023-08-30T05:26:33;100491.88;;;12.81;100.00
51289;BME280;37372;52.294;5.152;2023-08-30T05:29:10;100488.63;;;12.84;98.72
51289;BME280;37372;52.294;5.152;2023-08-30T05:31:39;100496.34;;;12.87;99.19
51289;BME280;37372;52.294;5.152;2023-08-30T05:34:15;100490.09;;;12.91;98.57
51289;BME280;37372;52.294;5.152;2023-08-30T05:36:46;100499.75;;;12.94;98.07
51289;BME280;37372;52.294;5.152;2023-08-30T05:39:21;100501.81;;;13.04;97.94
51289;BME280;37372;52.294;5.152;2023-08-30T05:41:49;100506.13;;;13.16;98.51
51289;BME280;37372;52.294;5.152;2023-08-30T05:44:14;100503.09;;;13.18;96.81
51289;BME280;37372;52.294;5.152;2023-08-30T05:46:40;100507.69;;;13.29;96.77
51289;BME280;37372;52.294;5.152;2023-08-30T05:49:05;100493.91;;;13.29;95.76
51289;BME280;37372;52.294;5.152;2023-08-30T05:51:34;100484.81;;;13.28;96.06
51289;BME280;37372;52.294;5.152;2023-08-30T05:53:59;100483.66;;;13.24;95.82
51289;BME280;37372;52.294;5.152;2023-08-30T05:56:25;100486.09;;;13.21;97.07
51289;BME280;37372;52.294;5.152;2023-08-30T05:58:53;100488.19;;;13.14;99.43
51289;BME280;37372;52.294;5.152;2023-08-30T06:01:21;100485.38;;;13.09;100.00
51289;BME280;37372;52.294;5.152;2023-08-30T06:03:46;100483.00;;;12.95;100.00
51289;BME280;37372;52.294;5.152;2023-08-30T06:06:15;100478.75;;;12.88;100.00
51289;BME280;37372;52.294;5.152;2023-08-30T06:08:44;100478.06;;;12.76;100.00
51289;BME280;37372;52.294;5.152;2023-08-30T06:11:18;100468.00;;;12.64;100.00
51289;BME280;37372;52.294;5.152;2023-08-30T06:13:53;100471.19;;;12.56;100.00
51289;BME280;37372;52.294;5.152;2023-08-30T06:16:28;100463.69;;;12.52;100.00
51289;BME280;37372;52.294;5.152;2023-08-30T06:19:05;100462.69;;;12.41;100.00
51289;BME280;37372;52.294;5.152;2023-08-30T06:21:34;100466.53;;;12.40;100.00
51289;BME280;37372;52.294;5.152;2023-08-30T06:24:04;100460.63;;;12.31;100.00
51289;BME280;37372;52.294;5.152;2023-08-30T06:26:29;100467.78;;;12.32;100.00
51289;BME280;37372;52.294;5.152;2023-08-30T06:28:57;100470.81;;;12.31;100.00
51289;BME280;37372;52.294;5.152;2023-08-30T06:31:23;100474.88;;;12.28;100.00
51289;BME280;37372;52.294;5.152;2023-08-30T06:33:49;100470.88;;;12.19;100.00
51289;BME280;37372;52.294;5.152;2023-08-30T06:36:18;100465.31;;;12.14;100.00
51289;BME280;37372;52.294;5.152;2023-08-30T06:38:53;100456.97;;;12.09;100.00
51289;BME280;37372;52.294;5.152;2023-08-30T06:41:18;100464.38;;;12.08;100.00
51289;BME280;37372;52.294;5.152;2023-08-30T06:43:53;100454.97;;;12.04;100.00
51289;BME280;37372;52.294;5.152;2023-08-30T06:46:27;100455.31;;;12.08;100.00
51289;BME280;37372;52.294;5.152;2023-08-30T06:48:53;100455.56;;;12.06;100.00
51289;BME280;37372;52.294;5.152;2023-08-30T06:51:37;100450.06;;;12.06;100.00
51289;BME280;37372;52.294;5.152;2023-08-30T06:54:02;100456.03;;;12.03;100.00
51289;BME280;37372;52.294;5.152;2023-08-30T06:56:28;100441.81;;;12.06;100.00
51289;BME280;37372;52.294;5.152;2023-08-30T06:58:53;100440.38;;;12.04;100.00
51289;BME280;37372;52.294;5.152;2023-08-30T07:01:19;100440.72;;;12.07;100.00
51289;BME280;37372;52.294;5.152;2023-08-30T07:03:44;100431.56;;;12.02;100.00
51289;BME280;37372;52.294;5.152;2023-08-30T07:06:10;100427.41;;;11.99;100.00
51289;BME280;37372;52.294;5.152;2023-08-30T07:08:36;100430.97;;;12.00;100.00
51289;BME280;37372;52.294;5.152;2023-08-30T07:11:01;100429.72;;;12.07;100.00
51289;BME280;37372;52.294;5.152;2023-08-30T07:13:41;100419.06;;;12.11;100.00
51289;BME280;37372;52.294;5.152;2023-08-30T07:16:07;100423.88;;;12.04;100.00
51289;BME280;37372;52.294;5.152;2023-08-30T07:18:41;100420.06;;;12.05;100.00
51289;BME280;37372;52.294;5.152;2023-08-30T07:21:07;100409.66;;;12.07;100.00
51289;BME280;37372;52.294;5.152;2023-08-30T07:23:47;100409.38;;;12.08;100.00
51289;BME280;37372;52.294;5.152;2023-08-30T07:26:28;100404.28;;;12.17;100.00
51289;BME280;37372;52.294;5.152;2023-08-30T07:28:54;100413.22;;;12.24;100.00
51289;BME280;37372;52.294;5.152;2023-08-30T07:31:35;100412.91;;;12.42;100.00
51289;BME280;37372;52.294;5.152;2023-08-30T07:34:06;100408.97;;;12.55;100.00
51289;BME280;37372;52.294;5.152;2023-08-30T07:36:54;100411.53;;;12.62;100.00
51289;BME280;37372;52.294;5.152;2023-08-30T07:39:21;100404.25;;;12.72;100.00
51289;BME280;37372;52.294;5.152;2023-08-30T07:41:46;100393.38;;;12.83;100.00
51289;BME280;37372;52.294;5.152;2023-08-30T07:44:12;100388.78;;;12.93;100.00
51289;BME280;37372;52.294;5.152;2023-08-30T07:46:40;100379.91;;;13.08;100.00
51289;BME280;37372;52.294;5.152;2023-08-30T07:49:35;100362.16;;;13.21;100.00
51289;BME280;37372;52.294;5.152;2023-08-30T07:52:00;100356.13;;;13.24;100.00
51289;BME280;37372;52.294;5.152;2023-08-30T07:54:36;100359.97;;;13.23;100.00
51289;BME280;37372;52.294;5.152;2023-08-30T07:57:08;100360.91;;;13.34;100.00
51289;BME280;37372;52.294;5.152;2023-08-30T07:59:51;100364.84;;;13.43;100.00
51289;BME280;37372;52.294;5.152;2023-08-30T08:02:19;100368.41;;;13.43;100.00
51289;BME280;37372;52.294;5.152;2023-08-30T08:04:45;100378.44;;;13.54;100.00
51289;BME280;37372;52.294;5.152;2023-08-30T08:07:10;100376.56;;;13.60;100.00
51289;BME280;37372;52.294;5.152;2023-08-30T08:09:36;100378.75;;;13.58;100.00
51289;BME280;37372;52.294;5.152;2023-08-30T08:12:05;100385.47;;;13.67;100.00
51289;BME280;37372;52.294;5.152;2023-08-30T08:14:30;100385.19;;;13.69;100.00
51289;BME280;37372;52.294;5.152;2023-08-30T08:17:06;100387.38;;;13.67;100.00
51289;BME280;37372;52.294;5.152;2023-08-30T08:19:52;100386.06;;;13.74;100.00
51289;BME280;37372;52.294;5.152;2023-08-30T08:22:17;100376.25;;;13.89;100.00
51289;BME280;37372;52.294;5.152;2023-08-30T08:25:08;100382.09;;;13.97;100.00
51289;BME280;37372;52.294;5.152;2023-08-30T08:27:47;100380.41;;;13.91;100.00
51289;BME280;37372;52.294;5.152;2023-08-30T08:30:16;100383.47;;;13.95;100.00
51289;BME280;37372;52.294;5.152;2023-08-30T08:32:41;100367.97;;;13.89;100.00
51289;BME280;37372;52.294;5.152;2023-08-30T08:35:07;100377.44;;;13.98;100.00
51289;BME280;37372;52.294;5.152;2023-08-30T08:37:37;100378.03;;;14.10;100.00
51289;BME280;37372;52.294;5.152;2023-08-30T08:40:03;100367.13;;;14.25;100.00
51289;BME280;37372;52.294;5.152;2023-08-30T08:42:36;100368.78;;;14.26;100.00
51289;BME280;37372;52.294;5.152;2023-08-30T08:45:06;100362.72;;;14.29;100.00
51289;BME280;37372;52.294;5.152;2023-08-30T08:47:53;100359.16;;;14.34;100.00
51289;BME280;37372;52.294;5.152;2023-08-30T08:50:29;100356.75;;;14.43;100.00
51289;BME280;37372;52.294;5.152;2023-08-30T08:52:59;100360.56;;;14.36;100.00
51289;BME280;37372;52.294;5.152;2023-08-30T08:55:26;100354.72;;;14.28;100.00
51289;BME280;37372;52.294;5.152;2023-08-30T08:58:06;100359.94;;;14.24;100.00
51289;BME280;37372;52.294;5.152;2023-08-30T09:00:47;100352.28;;;14.36;100.00
51289;BME280;37372;52.294;5.152;2023-08-30T09:03:19;100357.22;;;14.34;100.00
51289;BME280;37372;52.294;5.152;2023-08-30T09:06:12;100361.19;;;14.49;100.00
51289;BME280;37372;52.294;5.152;2023-08-30T09:09:08;100350.47;;;14.52;100.00
51289;BME280;37372;52.294;5.152;2023-08-30T09:11:34;100368.41;;;14.55;100.00
51289;BME280;37372;52.294;5.152;2023-08-30T09:14:10;100362.28;;;14.48;100.00
51289;BME280;37372;52.294;5.152;2023-08-30T09:16:36;100362.81;;;14.45;100.00
51289;BME280;37372;52.294;5.152;2023-08-30T09:19:04;100355.53;;;14.28;100.00
51289;BME280;37372;52.294;5.152;2023-08-30T09:21:32;100355.53;;;14.28;100.00
51289;BME280;37372;52.294;5.152;2023-08-30T09:24:23;100352.78;;;14.28;100.00
51289;BME280;37372;52.294;5.152;2023-08-30T09:27:11;100354.78;;;14.38;100.00
51289;BME280;37372;52.294;5.152;2023-08-30T09:29:36;100353.78;;;14.49;100.00
51289;BME280;37372;52.294;5.152;2023-08-30T09:32:07;100357.88;;;14.47;100.00
51289;BME280;37372;52.294;5.152;2023-08-30T09:34:35;100361.13;;;14.39;100.00
51289;BME280;37372;52.294;5.152;2023-08-30T09:37:04;100357.78;;;14.31;100.00
51289;BME280;37372;52.294;5.152;2023-08-30T09:39:29;100357.22;;;14.34;100.00
51289;BME280;37372;52.294;5.152;2023-08-30T09:41:55;100360.13;;;14.55;100.00
51289;BME280;37372;52.294;5.152;2023-08-30T09:44:21;100357.72;;;14.74;100.00
51289;BME280;37372;52.294;5.152;2023-08-30T09:47:08;100353.13;;;14.95;100.00
51289;BME280;37372;52.294;5.152;2023-08-30T09:49:44;100353.44;;;15.13;100.00
51289;BME280;37372;52.294;5.152;2023-08-30T09:52:15;100346.28;;;15.28;100.00
51289;BME280;37372;52.294;5.152;2023-08-30T09:54:43;100349.56;;;15.25;100.00
51289;BME280;37372;52.294;5.152;2023-08-30T09:57:10;100352.31;;;15.20;100.00
51289;BME280;37372;52.294;5.152;2023-08-30T09:59:39;100362.28;;;15.21;100.00
51289;BME280;37372;52.294;5.152;2023-08-30T10:04:51;100348.25;;;15.63;100.00
51289;BME280;37372;52.294;5.152;2023-08-30T10:07:21;100350.47;;;15.91;100.00
51289;BME280;37372;52.294;5.152;2023-08-30T10:09:53;100347.69;;;15.86;100.00
51289;BME280;37372;52.294;5.152;2023-08-30T10:12:24;100346.50;;;16.33;100.00
51289;BME280;37372;52.294;5.152;2023-08-30T10:15:11;100339.03;;;16.29;100.00
51289;BME280;37372;52.294;5.152;2023-08-30T10:17:42;100334.75;;;16.72;100.00
51289;BME280;37372;52.294;5.152;2023-08-30T10:20:13;100343.09;;;16.57;100.00
51289;BME280;37372;52.294;5.152;2023-08-30T10:22:45;100344.25;;;16.45;100.00
51289;BME280;37372;52.294;5.152;2023-08-30T10:25:25;100349.47;;;16.52;100.00
51289;BME280;37372;52.294;5.152;2023-08-30T10:27:53;100339.84;;;16.29;99.80
51289;BME280;37372;52.294;5.152;2023-08-30T10:30:24;100349.00;;;16.30;100.00
51289;BME280;37372;52.294;5.152;2023-08-30T10:32:51;100358.16;;;16.20;100.00
51289;BME280;37372;52.294;5.152;2023-08-30T10:35:19;100355.63;;;16.29;100.00
51289;BME280;37372;52.294;5.152;2023-08-30T10:37:59;100352.03;;;16.28;100.00
51289;BME280;37372;52.294;5.152;2023-08-30T10:40:32;100360.59;;;16.37;100.00
51289;BME280;37372;52.294;5.152;2023-08-30T10:43:33;100355.09;;;16.21;100.00
51289;BME280;37372;52.294;5.152;2023-08-30T10:46:10;100362.28;;;16.33;100.00
51289;BME280;37372;52.294;5.152;2023-08-30T10:48:40;100354.84;;;16.23;100.00
51289;BME280;37372;52.294;5.152;2023-08-30T10:51:22;100352.91;;;16.23;100.00
51289;BME280;37372;52.294;5.152;2023-08-30T10:54:38;100363.91;;;16.34;100.00
51289;BME280;37372;52.294;5.152;2023-08-30T10:57:13;100361.97;;;16.44;100.00
51289;BME280;37372;52.294;5.152;2023-08-30T10:59:39;100363.84;;;16.64;100.00
51289;BME280;37372;52.294;5.152;2023-08-30T11:02:06;100372.44;;;16.63;96.72
51289;BME280;37372;52.294;5.152;2023-08-30T11:04:32;100376.00;;;16.68;100.00
51289;BME280;37372;52.294;5.152;2023-08-30T11:06:57;100376.81;;;16.79;100.00
51289;BME280;37372;52.294;5.152;2023-08-30T11:09:57;100379.03;;;16.67;99.00
51289;BME280;37372;52.294;5.152;2023-08-30T11:12:19;100376.66;;;16.35;100.00
51289;BME280;37372;52.294;5.152;2023-08-30T11:14:59;100373.56;;;16.46;100.00
51289;BME280;37372;52.294;5.152;2023-08-30T11:17:28;100367.75;;;16.53;96.32
51289;BME280;37372;52.294;5.152;2023-08-30T11:20:08;100374.63;;;16.71;99.27
51289;BME280;37372;52.294;5.152;2023-08-30T11:22:44;100370.63;;;16.97;99.79
51289;BME280;37372;52.294;5.152;2023-08-30T11:25:22;100376.03;;;17.23;97.05
51289;BME280;37372;52.294;5.152;2023-08-30T11:27:48;100375.41;;;17.36;92.78
51289;BME280;37372;52.294;5.152;2023-08-30T11:30:13;100380.16;;;18.04;89.58
51289;BME280;37372;52.294;5.152;2023-08-30T11:32:45;100383.47;;;18.06;87.63
51289;BME280;37372;52.294;5.152;2023-08-30T11:35:19;100383.88;;;17.89;81.79
51289;BME280;37372;52.294;5.152;2023-08-30T11:37:46;100388.00;;;17.57;85.44
51289;BME280;37372;52.294;5.152;2023-08-30T11:40:12;100386.16;;;17.43;81.67
51289;BME280;37372;52.294;5.152;2023-08-30T11:42:44;100380.06;;;17.46;80.00
51289;BME280;37372;52.294;5.152;2023-08-30T11:45:16;100384.31;;;17.72;81.52
51289;BME280;37372;52.294;5.152;2023-08-30T11:47:58;100380.44;;;17.73;84.90
51289;BME280;37372;52.294;5.152;2023-08-30T11:50:23;100377.34;;;17.75;86.27
51289;BME280;37372;52.294;5.152;2023-08-30T11:52:55;100380.22;;;17.59;88.09
51289;BME280;37372;52.294;5.152;2023-08-30T11:55:25;100375.06;;;17.82;85.26
51289;BME280;37372;52.294;5.152;2023-08-30T11:57:51;100385.94;;;18.07;86.19
51289;BME280;37372;52.294;5.152;2023-08-30T12:00:19;100384.69;;;18.24;83.38
51289;BME280;37372;52.294;5.152;2023-08-30T12:03:08;100379.00;;;18.34;80.64
51289;BME280;37372;52.294;5.152;2023-08-30T12:06:01;100372.41;;;18.30;83.38
51289;BME280;37372;52.294;5.152;2023-08-30T12:08:28;100388.50;;;18.57;81.62
51289;BME280;37372;52.294;5.152;2023-08-30T12:11:01;100384.84;;;18.61;78.46
51289;BME280;37372;52.294;5.152;2023-08-30T12:13:39;100389.22;;;18.91;73.59
51289;BME280;37372;52.294;5.152;2023-08-30T12:16:05;100403.75;;;19.07;72.33
51289;BME280;37372;52.294;5.152;2023-08-30T12:18:33;100400.06;;;19.12;71.59
51289;BME280;37372;52.294;5.152;2023-08-30T12:21:00;100394.88;;;19.24;69.97
51289;BME280;37372;52.294;5.152;2023-08-30T12:23:38;100389.19;;;19.34;73.75
51289;BME280;37372;52.294;5.152;2023-08-30T12:26:09;100410.84;;;19.37;74.62
51289;BME280;37372;52.294;5.152;2023-08-30T12:28:44;100386.28;;;18.83;77.24
51289;BME280;37372;52.294;5.152;2023-08-30T12:31:10;100401.56;;;18.80;76.12
51289;BME280;37372;52.294;5.152;2023-08-30T12:33:38;100399.72;;;18.47;77.86
51289;BME280;37372;52.294;5.152;2023-08-30T12:36:17;100402.69;;;18.55;74.51
51289;BME280;37372;52.294;5.152;2023-08-30T12:39:10;100411.22;;;18.88;70.46
51289;BME280;37372;52.294;5.152;2023-08-30T12:41:35;100416.34;;;19.00;72.08
51289;BME280;37372;52.294;5.152;2023-08-30T12:44:04;100412.50;;;19.19;72.76
51289;BME280;37372;52.294;5.152;2023-08-30T12:46:36;100410.97;;;19.08;71.53
51289;BME280;37372;52.294;5.152;2023-08-30T12:49:13;100418.28;;;18.99;67.85
51289;BME280;37372;52.294;5.152;2023-08-30T12:51:38;100414.72;;;18.75;70.47
51289;BME280;37372;52.294;5.152;2023-08-30T12:54:09;100417.66;;;18.83;72.62
51289;BME280;37372;52.294;5.152;2023-08-30T12:56:34;100406.75;;;18.68;66.68
51289;BME280;37372;52.294;5.152;2023-08-30T12:59:09;100409.69;;;18.77;72.87
51289;BME280;37372;52.294;5.152;2023-08-30T13:01:42;100413.00;;;18.79;68.20
51289;BME280;37372;52.294;5.152;2023-08-30T13:04:07;100419.00;;;18.62;65.39
51289;BME280;37372;52.294;5.152;2023-08-30T13:06:58;100424.47;;;18.72;63.69
51289;BME280;37372;52.294;5.152;2023-08-30T13:09:52;100428.47;;;18.85;65.20
51289;BME280;37372;52.294;5.152;2023-08-30T13:12:39;100425.97;;;18.88;65.28
51289;BME280;37372;52.294;5.152;2023-08-30T13:15:09;100430.13;;;18.62;64.23
51289;BME280;37372;52.294;5.152;2023-08-30T13:17:34;100435.59;;;18.43;66.68
51289;BME280;37372;52.294;5.152;2023-08-30T13:20:07;100438.13;;;18.10;66.78
51289;BME280;37372;52.294;5.152;2023-08-30T13:22:35;100447.06;;;18.02;69.42